Time;durP1;ratioP1;P1;durP2;ratioP2;P2;SDS_P1;SDS_P2;PMS_P1;PMS_P2;Temp;Humidity;BMP_temperature;BMP_pressure;BME280_temperature;BME280_humidity;BME280_pressure;Samples;Min_cycle;Max_cycle;Signal;HPM_P1;HPM_P2
2023/10/03 00:00:36;;;;;;;9.80;8.80;;;;;;;16.97;71.71;95785.06;5073875;28;20488;-79
2023/10/03 00:03:07;;;;;;;12.50;9.23;;;;;;;16.96;72.34;95786.06;5073924;28;20526;-78
2023/10/03 00:05:35;;;;;;;10.57;8.93;;;;;;;16.98;72.52;95789.41;5039788;28;20441;-78
2023/10/03 00:08:04;;;;;;;15.50;8.83;;;;;;;17.01;72.32;95786.44;5073913;28;20443;-80
2023/10/03 00:10:33;;;;;;;13.80;9.20;;;;;;;16.95;71.83;95779.91;5073653;28;20966;-79
2023/10/03 00:12:59;;;;;;;11.87;8.70;;;;;;;16.94;72.43;95788.03;5073752;28;20469;-79
2023/10/03 00:15:28;;;;;;;12.57;9.23;;;;;;;16.90;72.82;95790.13;5073415;28;20821;-80
2023/10/03 00:17:56;;;;;;;14.83;9.53;;;;;;;16.94;72.38;95790.66;5073735;28;20528;-80
2023/10/03 00:20:23;;;;;;;10.53;8.73;;;;;;;16.97;73.12;95788.56;5073633;28;20488;-79
2023/10/03 00:22:51;;;;;;;10.97;9.10;;;;;;;16.98;73.12;95790.22;5073465;28;20498;-78
2023/10/03 00:25:23;;;;;;;12.33;8.23;;;;;;;16.90;72.91;95797.25;5073715;28;20489;-79
2023/10/03 00:27:52;;;;;;;12.43;7.73;;;;;;;16.81;72.65;95788.38;5073228;28;20939;-80
2023/10/03 00:30:20;;;;;;;10.80;8.57;;;;;;;16.76;73.37;95789.75;5073756;28;20496;-79
2023/10/03 00:32:47;;;;;;;12.33;8.80;;;;;;;16.79;72.50;95781.56;5071367;28;20462;-80
2023/10/03 00:35:17;;;;;;;15.97;9.90;;;;;;;16.73;73.17;95777.66;5073477;28;20883;-79
2023/10/03 00:37:46;;;;;;;11.90;8.90;;;;;;;16.81;73.16;95777.78;5037650;28;20489;-79
2023/10/03 00:40:26;;;;;;;15.10;9.03;;;;;;;16.84;73.06;95784.59;5073514;28;20887;-78
2023/10/03 00:42:57;;;;;;;16.03;8.70;;;;;;;16.75;72.95;95785.44;5073280;28;20447;-79
2023/10/03 00:45:25;;;;;;;12.50;8.57;;;;;;;16.76;72.79;95784.47;5073134;28;20453;-79
2023/10/03 00:47:53;;;;;;;12.37;8.90;;;;;;;16.61;73.19;95781.44;5072922;28;20530;-79
2023/10/03 00:50:25;;;;;;;13.37;8.37;;;;;;;16.66;74.69;95785.34;5073556;28;20474;-78
2023/10/03 00:52:55;;;;;;;13.57;9.30;;;;;;;16.71;75.19;95787.56;5073147;28;20479;-79
2023/10/03 00:55:24;;;;;;;11.30;8.57;;;;;;;16.69;74.41;95789.53;5073128;28;20450;-79
2023/10/03 00:58:01;;;;;;;10.20;8.60;;;;;;;16.70;73.64;95788.53;5073353;28;20452;-79
2023/10/03 01:00:28;;;;;;;14.87;8.53;;;;;;;16.62;73.90;95791.06;5072932;28;20499;-79
2023/10/03 01:02:55;;;;;;;13.50;8.97;;;;;;;16.62;74.44;95789.25;5072923;28;20479;-79
2023/10/03 01:05:23;;;;;;;14.93;8.60;;;;;;;16.68;73.68;95785.19;5072942;28;20934;-79
2023/10/03 01:07:50;;;;;;;16.17;9.30;;;;;;;16.69;72.36;95784.22;5073150;28;20441;-79
2023/10/03 01:10:19;;;;;;;11.13;8.27;;;;;;;16.70;72.83;95792.03;5072876;28;20546;-79
2023/10/03 01:12:46;;;;;;;10.40;7.93;;;;;;;16.69;73.91;95790.34;5073061;28;20472;-79
2023/10/03 01:15:18;;;;;;;11.70;8.47;;;;;;;16.72;73.46;95790.06;5053976;28;20477;-79
2023/10/03 01:17:48;;;;;;;9.80;7.47;;;;;;;16.69;72.07;95787.69;5072770;28;20478;-79
2023/10/03 01:20:23;;;;;;;9.57;7.67;;;;;;;16.72;72.22;95791.88;5072740;28;20493;-79
2023/10/03 01:22:54;;;;;;;12.27;8.60;;;;;;;16.72;73.45;95789.22;5024374;28;20443;-79
2023/10/03 01:25:22;;;;;;;10.37;7.50;;;;;;;16.78;73.31;95790.47;5072851;28;20471;-80
2023/10/03 01:27:49;;;;;;;18.27;8.00;;;;;;;16.80;73.10;95793.81;5072643;28;20445;-79
2023/10/03 01:30:16;;;;;;;11.07;7.80;;;;;;;16.80;72.50;95785.88;5072957;28;20483;-78
2023/10/03 01:32:49;;;;;;;12.87;7.93;;;;;;;16.81;72.81;95787.53;5072686;28;20444;-79
2023/10/03 01:35:16;;;;;;;9.93;7.97;;;;;;;16.85;72.27;95786.25;5072718;28;20450;-79
2023/10/03 01:37:45;;;;;;;12.40;7.90;;;;;;;16.91;72.95;95785.66;5072606;28;20475;-79
2023/10/03 01:40:16;;;;;;;11.63;8.77;;;;;;;16.95;72.76;95785.22;5036853;28;20434;-79
2023/10/03 01:42:46;;;;;;;9.33;7.30;;;;;;;16.72;71.45;95789.22;5072593;28;20452;-79
2023/10/03 01:45:17;;;;;;;10.80;8.87;;;;;;;16.31;73.58;95787.81;5072528;28;20446;-79
2023/10/03 01:47:45;;;;;;;13.53;8.77;;;;;;;16.27;74.57;95789.91;5072809;28;20468;-79
2023/10/03 01:50:12;;;;;;;12.50;8.33;;;;;;;16.32;74.66;95786.81;5072431;28;20458;-79
2023/10/03 01:52:40;;;;;;;12.73;8.03;;;;;;;16.35;73.53;95781.22;5072606;28;20441;-79
2023/10/03 01:55:09;;;;;;;16.93;8.83;;;;;;;16.35;73.80;95781.22;5072433;28;20440;-79
2023/10/03 01:57:37;;;;;;;17.93;9.43;;;;;;;16.40;74.01;95785.13;5072765;28;20454;-79
2023/10/03 02:00:20;;;;;;;15.60;8.67;;;;;;;16.43;73.14;95778.69;5076209;28;20446;-79
2023/10/03 02:02:47;;;;;;;15.67;8.20;;;;;;;16.47;74.27;95780.06;5076221;28;20444;-79
2023/10/03 02:05:14;;;;;;;11.53;8.80;;;;;;;16.53;73.41;95778.69;5075875;28;20537;-79
2023/10/03 02:07:42;;;;;;;12.10;8.87;;;;;;;16.54;72.51;95775.88;5040956;28;20524;-79
2023/10/03 02:10:12;;;;;;;12.73;8.90;;;;;;;16.50;72.01;95777.16;5075924;28;20489;-80
2023/10/03 02:12:41;;;;;;;10.10;8.23;;;;;;;16.56;72.12;95781.03;5076269;28;20483;-79
2023/10/03 02:15:14;;;;;;;14.10;8.30;;;;;;;16.55;73.84;95771.41;5075788;28;21156;-79
2023/10/03 02:17:41;;;;;;;9.20;7.50;;;;;;;16.52;73.06;95767.25;5075903;28;20927;-79
2023/10/03 02:20:14;;;;;;;12.10;7.87;;;;;;;16.54;73.37;95765.28;5075629;28;20468;-78
2023/10/03 02:22:41;;;;;;;14.43;8.47;;;;;;;16.58;73.04;95760.53;5075800;28;20534;-79
2023/10/03 02:25:10;;;;;;;14.03;8.50;;;;;;;16.55;73.46;95761.66;5075604;28;20452;-79
2023/10/03 02:27:37;;;;;;;9.83;7.37;;;;;;;16.51;72.91;95754.97;5075674;28;20452;-79
2023/10/03 02:30:11;;;;;;;9.47;7.20;;;;;;;16.52;71.25;95759.31;5076127;28;20524;-78
2023/10/03 02:32:41;;;;;;;17.03;9.60;;;;;;;16.43;72.81;95755.69;5075560;28;20465;-79
2023/10/03 02:35:09;;;;;;;10.20;7.90;;;;;;;16.34;73.40;95750.44;5075449;28;20931;-79
2023/10/03 02:37:36;;;;;;;9.23;7.20;;;;;;;16.31;74.07;95758.66;5040593;28;20451;-79
2023/10/03 02:40:07;;;;;;;13.70;7.40;;;;;;;16.34;72.75;95753.06;5075672;28;20480;-79
2023/10/03 02:42:37;;;;;;;14.80;8.70;;;;;;;16.24;73.87;95746.97;5075320;28;20479;-79
2023/10/03 02:45:06;;;;;;;10.77;7.10;;;;;;;16.15;73.97;95747.81;5075586;28;20439;-79
2023/10/03 02:47:34;;;;;;;11.70;7.53;;;;;;;16.15;73.94;95742.53;5056894;28;20441;-79
2023/10/03 02:50:02;;;;;;;12.50;7.70;;;;;;;16.13;73.66;95755.91;5075654;28;20530;-79
2023/10/03 02:52:29;;;;;;;9.30;7.73;;;;;;;16.10;73.91;95745.59;5075267;28;20503;-79
2023/10/03 02:54:56;;;;;;;11.70;8.10;;;;;;;16.05;74.19;95751.34;5075410;28;20478;-79
2023/10/03 02:57:24;;;;;;;10.93;7.87;;;;;;;16.00;73.96;95747.44;5075072;28;20789;-79
2023/10/03 02:59:51;;;;;;;13.73;7.60;;;;;;;15.91;73.71;95756.25;5075241;28;20830;-79
2023/10/03 03:02:18;;;;;;;15.03;9.73;;;;;;;15.81;74.21;95750.94;5074724;28;20859;-78
2023/10/03 03:04:45;;;;;;;12.57;8.37;;;;;;;15.73;74.36;95753.47;5075311;28;20443;-78
2023/10/03 03:07:13;;;;;;;15.67;10.00;;;;;;;15.70;74.35;95753.75;5075038;28;20450;-79
2023/10/03 03:09:40;;;;;;;13.50;8.93;;;;;;;15.56;74.40;95752.31;5074771;28;20890;-79
2023/10/03 03:12:07;;;;;;;19.10;11.07;;;;;;;15.33;75.63;95750.94;5075393;28;20450;-79
2023/10/03 03:14:35;;;;;;;14.47;10.90;;;;;;;15.09;76.89;95760.09;5074475;28;20447;-78
2023/10/03 03:17:06;;;;;;;17.60;10.70;;;;;;;14.96;77.52;95761.28;5075167;28;20866;-78
2023/10/03 03:19:33;;;;;;;16.90;11.10;;;;;;;14.91;78.89;95763.50;5074780;28;20813;-78
2023/10/03 03:22:04;;;;;;;14.20;9.83;;;;;;;14.98;78.19;95767.28;5074749;28;20503;-78
2023/10/03 03:24:34;;;;;;;18.63;11.10;;;;;;;15.12;77.86;95764.25;5074694;28;20451;-79
2023/10/03 03:27:02;;;;;;;10.80;9.40;;;;;;;15.18;76.63;95769.00;5074481;28;20494;-79
2023/10/03 03:29:35;;;;;;;20.77;10.17;;;;;;;15.15;76.17;95771.91;5074612;28;20442;-79
2023/10/03 03:32:04;;;;;;;12.50;9.43;;;;;;;15.17;76.16;95773.44;5074542;28;20922;-79
2023/10/03 03:34:31;;;;;;;17.03;11.30;;;;;;;15.19;76.90;95773.31;5074426;28;20486;-79
2023/10/03 03:37:20;;;;;;;21.50;11.40;;;;;;;15.29;76.57;95778.59;5074503;28;20441;-78
2023/10/03 03:39:53;;;;;;;13.83;10.00;;;;;;;15.23;75.67;95779.16;5074090;28;20472;-79
2023/10/03 03:42:22;;;;;;;15.10;10.20;;;;;;;15.11;75.67;95783.75;5038930;28;20986;-79
2023/10/03 03:44:48;;;;;;;23.13;11.27;;;;;;;14.91;76.24;95782.00;5074567;28;20442;-79
2023/10/03 03:47:18;;;;;;;13.40;9.97;;;;;;;14.82;77.26;95781.00;5074513;28;20915;-79
2023/10/03 03:49:46;;;;;;;17.07;10.17;;;;;;;14.76;77.52;95784.19;5074526;28;20932;-79
2023/10/03 03:52:16;;;;;;;21.57;15.27;;;;;;;14.81;78.07;95784.63;5055927;28;20524;-78
2023/10/03 03:54:43;;;;;;;27.43;17.90;;;;;;;14.88;78.70;95794.53;5055368;28;20939;-79
2023/10/03 03:57:11;;;;;;;21.97;14.17;;;;;;;14.88;77.98;95789.22;5074186;28;20915;-80
2023/10/03 03:59:38;;;;;;;16.07;12.17;;;;;;;14.82;78.24;95787.13;5074393;28;20800;-79
2023/10/03 04:02:06;;;;;;;36.17;14.53;;;;;;;14.81;77.76;95787.28;5074141;28;20485;-79
2023/10/03 04:04:34;;;;;;;20.70;13.17;;;;;;;14.77;78.97;95792.00;5071282;28;20606;-79
2023/10/03 04:07:00;;;;;;;25.27;12.97;;;;;;;14.82;78.58;95795.06;5073806;28;20519;-79
2023/10/03 04:09:27;;;;;;;25.30;12.70;;;;;;;14.88;77.93;95793.69;5074190;28;20437;-80
2023/10/03 04:11:54;;;;;;;21.20;12.20;;;;;;;14.88;77.85;95799.81;5073636;28;20437;-79
2023/10/03 04:14:22;;;;;;;22.20;11.60;;;;;;;14.96;77.82;95800.94;5074460;28;20442;-79
2023/10/03 04:16:49;;;;;;;15.13;12.50;;;;;;;15.01;77.07;95793.44;5037165;28;20479;-79
2023/10/03 04:19:16;;;;;;;18.80;13.00;;;;;;;15.07;76.75;95795.56;5051581;28;20433;-79
2023/10/03 04:21:44;;;;;;;19.87;11.47;;;;;;;15.10;76.30;95803.22;5053145;28;20591;-78
2023/10/03 04:24:12;;;;;;;23.57;13.50;;;;;;;15.12;76.20;95801.28;5054113;28;20454;-79
2023/10/03 04:26:41;;;;;;;14.30;11.83;;;;;;;15.00;75.57;95804.97;5053713;28;20493;-79
2023/10/03 04:29:11;;;;;;;20.10;13.17;;;;;;;14.83;75.65;95796.72;5053605;28;20497;-79
2023/10/03 04:31:39;;;;;;;18.97;12.27;;;;;;;14.66;76.35;95800.00;5053796;28;20450;-80
2023/10/03 04:34:07;;;;;;;26.67;14.50;;;;;;;14.50;77.82;95794.38;5053837;28;20537;-79
2023/10/03 04:36:36;;;;;;;22.77;12.47;;;;;;;14.44;81.13;95789.59;5054719;28;20452;-80
2023/10/03 04:39:04;;;;;;;21.47;10.53;;;;;;;14.44;81.06;95792.22;5053771;28;20442;-79
2023/10/03 04:41:31;;;;;;;14.97;9.97;;;;;;;14.46;81.09;95783.25;5035018;28;20488;-78
2023/10/03 04:44:01;;;;;;;18.53;10.83;;;;;;;14.57;81.27;95785.78;5053497;28;20443;-79
2023/10/03 04:46:28;;;;;;;16.17;10.70;;;;;;;14.73;80.92;95789.72;5053720;28;20533;-79
2023/10/03 04:48:56;;;;;;;16.23;9.60;;;;;;;14.83;80.69;95786.16;5052991;28;20442;-78
2023/10/03 04:51:23;;;;;;;17.80;10.60;;;;;;;14.95;80.04;95788.69;5053377;28;20454;-77
2023/10/03 04:53:50;;;;;;;19.37;10.60;;;;;;;15.06;80.03;95788.59;5053379;28;20446;-78
2023/10/03 04:56:18;;;;;;;17.13;10.73;;;;;;;15.04;80.21;95787.91;5053007;28;20451;-78
2023/10/03 04:58:44;;;;;;;16.70;10.80;;;;;;;15.04;79.95;95788.75;5052967;28;20507;-79
2023/10/03 05:01:14;;;;;;;18.13;10.40;;;;;;;15.12;80.54;95793.34;5053035;28;20446;-79
2023/10/03 05:03:41;;;;;;;15.43;10.10;;;;;;;15.23;81.32;95793.22;5053305;28;20442;-79
2023/10/03 05:06:11;;;;;;;18.93;10.03;;;;;;;15.30;80.64;95802.25;5053229;28;20489;-78
2023/10/03 05:08:38;;;;;;;16.40;10.10;;;;;;;16.31;81.47;95791.28;5034126;28;20502;-83
2023/10/03 05:11:06;;;;;;;15.53;9.10;;;;;;;16.62;76.64;95796.34;5053007;28;20454;-80
2023/10/03 05:13:33;;;;;;;13.07;9.30;;;;;;;16.56;74.13;95799.59;5065588;28;20472;-76
2023/10/03 05:16:00;;;;;;;18.67;11.53;;;;;;;16.51;73.43;95807.97;5072504;28;20479;-77
2023/10/03 05:18:27;;;;;;;15.37;10.43;;;;;;;16.46;73.19;95796.13;5072862;28;20473;-77
2023/10/03 05:20:57;;;;;;;14.80;10.63;;;;;;;16.60;72.69;95807.09;5072837;28;20784;-77
2023/10/03 05:23:25;;;;;;;21.77;11.80;;;;;;;16.75;72.46;95806.66;5072252;28;20598;-77
2023/10/03 05:25:52;;;;;;;15.83;11.20;;;;;;;16.77;71.21;95810.84;5072463;28;20442;-78
2023/10/03 05:28:19;;;;;;;15.80;11.60;;;;;;;17.07;70.94;95809.75;5072723;28;20441;-78
2023/10/03 05:30:45;;;;;;;21.30;12.17;;;;;;;17.13;69.00;95811.81;5072315;28;20440;-78
2023/10/03 05:33:12;;;;;;;16.70;11.77;;;;;;;16.99;69.04;95817.56;5075082;28;20458;-78
2023/10/03 05:35:39;;;;;;;19.50;11.27;;;;;;;17.03;69.37;95818.94;5076938;28;20451;-78
2023/10/03 05:38:07;;;;;;;18.03;11.20;;;;;;;17.15;69.12;95823.09;5076786;28;20537;-77
2023/10/03 05:40:36;;;;;;;26.30;11.63;;;;;;;17.12;68.52;95822.56;5076423;28;20448;-78
2023/10/03 05:43:04;;;;;;;16.10;11.60;;;;;;;17.11;68.18;95810.28;5076822;28;20481;-78
2023/10/03 05:45:31;;;;;;;15.10;11.40;;;;;;;17.19;68.51;95821.81;5076866;28;20514;-77
2023/10/03 05:47:59;;;;;;;23.53;11.90;;;;;;;16.91;68.67;95820.13;5076556;28;20444;-78
2023/10/03 05:50:27;;;;;;;19.10;10.83;;;;;;;16.47;69.95;95821.63;5076549;28;20447;-78
2023/10/03 05:52:55;;;;;;;16.47;11.17;;;;;;;16.46;70.34;95825.25;5076272;28;20799;-77
2023/10/03 05:55:21;;;;;;;19.50;11.77;;;;;;;16.42;71.09;95822.06;5076497;28;20627;-77
2023/10/03 05:57:49;;;;;;;18.73;11.37;;;;;;;16.65;71.11;95820.75;5076287;28;20961;-77
2023/10/03 06:00:18;;;;;;;17.97;11.30;;;;;;;16.74;69.71;95816.41;5075819;28;20446;-78
2023/10/03 06:02:47;;;;;;;16.43;10.60;;;;;;;16.77;70.17;95820.59;5076539;28;20484;-78
2023/10/03 06:05:14;;;;;;;18.63;12.17;;;;;;;16.99;69.49;95823.72;5041113;28;20457;-78
2023/10/03 06:07:42;;;;;;;13.33;11.03;;;;;;;17.06;68.76;95823.13;5076051;28;20448;-77
2023/10/03 06:10:10;;;;;;;21.07;11.43;;;;;;;17.01;69.58;95819.09;5076159;28;20451;-78
2023/10/03 06:12:37;;;;;;;24.57;12.80;;;;;;;17.04;69.09;95826.75;5076148;28;20458;-78
2023/10/03 06:15:07;;;;;;;14.70;11.03;;;;;;;17.00;70.02;95827.19;5075755;28;20448;-79
2023/10/03 06:17:34;;;;;;;17.60;12.67;;;;;;;17.15;69.51;95817.78;5044552;28;20439;-81
2023/10/03 06:20:01;;;;;;;21.30;13.17;;;;;;;17.51;69.78;95828.47;5090755;28;20446;-78
2023/10/03 06:22:28;;;;;;;14.33;11.27;;;;;;;17.86;67.62;95828.53;5092159;28;20514;-78
2023/10/03 06:24:57;;;;;;;23.53;13.50;;;;;;;18.13;67.22;95826.78;5084110;28;20439;-77
2023/10/03 06:27:26;;;;;;;16.93;11.30;;;;;;;18.20;65.54;95831.31;5082024;28;20932;-77
2023/10/03 06:29:53;;;;;;;14.67;11.63;;;;;;;18.14;64.99;95826.63;5095812;28;20447;-77
2023/10/03 06:32:21;;;;;;;18.63;10.90;;;;;;;18.36;66.96;95830.63;5096025;28;20444;-77
2023/10/03 06:34:48;;;;;;;14.30;10.73;;;;;;;18.63;64.76;95826.19;5095836;28;20777;-76
2023/10/03 06:37:15;;;;;;;19.60;11.90;;;;;;;18.76;65.33;95827.41;5096023;28;20442;-78
2023/10/03 06:39:42;;;;;;;19.50;11.00;;;;;;;18.56;64.82;95832.09;5095841;28;20533;-78
2023/10/03 06:42:09;;;;;;;15.73;10.80;;;;;;;19.00;69.19;95833.88;5095831;28;20488;-79
2023/10/03 06:44:36;;;;;;;25.77;12.50;;;;;;;19.13;71.25;95832.44;5095069;28;20444;-77
2023/10/03 06:47:03;;;;;;;19.40;10.80;;;;;;;19.13;65.61;95837.78;5095978;28;20439;-79
2023/10/03 06:49:32;;;;;;;18.93;11.93;;;;;;;18.87;67.62;95827.16;5095798;28;20806;-78
2023/10/03 06:52:00;;;;;;;16.20;11.87;;;;;;;19.33;67.51;95834.84;5096019;28;20454;-79
2023/10/03 06:54:27;;;;;;;22.47;12.80;;;;;;;19.52;63.84;95833.75;5095515;28;20847;-79
2023/10/03 06:56:54;;;;;;;17.40;11.90;;;;;;;19.56;63.78;95838.63;5095545;28;20440;-79
2023/10/03 06:59:20;;;;;;;14.13;11.67;;;;;;;19.87;64.05;95830.88;5095668;28;20438;-78
2023/10/03 07:01:47;;;;;;;19.83;11.27;;;;;;;19.99;62.75;95831.41;5095145;28;20446;-78
2023/10/03 07:04:14;;;;;;;19.47;12.33;;;;;;;19.93;62.12;95838.19;5095370;28;20440;-79
2023/10/03 07:06:43;;;;;;;15.53;10.57;;;;;;;19.90;61.65;95833.19;5095386;28;20538;-80
2023/10/03 07:09:10;;;;;;;19.27;11.83;;;;;;;19.99;63.65;95842.88;5095329;28;20440;-81
2023/10/03 07:11:38;;;;;;;21.30;12.50;;;;;;;20.10;60.42;95844.38;5095224;28;20444;-80
2023/10/03 07:14:05;;;;;;;23.50;13.03;;;;;;;20.25;61.24;95852.56;5095472;28;20436;-82
2023/10/03 07:16:37;;;;;;;25.93;13.33;;;;;;;20.00;61.45;95854.38;5084794;28;20473;-80
2023/10/03 07:19:04;;;;;;;22.10;12.60;;;;;;;19.69;62.67;95847.00;5056570;28;20536;-80
2023/10/03 07:21:31;;;;;;;23.27;13.37;;;;;;;19.81;61.40;95860.81;5083376;28;20798;-84
2023/10/03 07:23:59;;;;;;;24.53;12.80;;;;;;;19.99;62.37;95858.88;5045212;28;20485;-80
2023/10/03 07:26:27;;;;;;;28.33;14.00;;;;;;;20.19;62.22;95864.72;5061147;28;20442;-81
2023/10/03 07:28:57;;;;;;;29.50;14.50;;;;;;;20.04;60.98;95861.03;5074418;28;20448;-81
2023/10/03 07:31:24;;;;;;;22.87;13.50;;;;;;;19.79;61.03;95868.97;5074833;28;20452;-81
2023/10/03 07:33:53;;;;;;;23.43;14.07;;;;;;;20.31;62.91;95865.22;5074234;28;20436;-78
2023/10/03 07:36:20;;;;;;;33.90;16.03;;;;;;;20.36;60.36;95868.22;5074464;28;20449;-77
2023/10/03 07:38:47;;;;;;;23.00;12.20;;;;;;;20.85;66.10;95863.72;5068440;28;20469;-77
2023/10/03 07:41:16;;;;;;;24.90;13.97;;;;;;;21.24;58.30;95858.50;5054934;28;20518;-77
2023/10/03 07:43:47;;;;;;;20.23;12.87;;;;;;;21.26;59.47;95861.81;5055025;28;20487;-77
2023/10/03 07:46:19;;;;;;;15.50;11.63;;;;;;;21.61;60.66;95857.00;5072753;28;20441;-77
2023/10/03 07:48:46;;;;;;;18.43;13.97;;;;;;;21.79;55.66;95856.75;5071367;28;20450;-76
2023/10/03 07:51:16;;;;;;;20.90;14.37;;;;;;;21.55;55.73;95853.19;5074484;28;20451;-77
2023/10/03 07:53:43;;;;;;;20.30;13.90;;;;;;;21.72;69.75;95863.81;5074612;28;20463;-76
2023/10/03 07:56:24;;;;;;;27.33;14.97;;;;;;;21.55;57.28;95852.34;5073074;28;20536;-76
2023/10/03 07:58:53;;;;;;;28.57;12.53;;;;;;;21.29;60.79;95848.13;5074116;28;20850;-77
2023/10/03 08:01:20;;;;;;;27.10;15.37;;;;;;;21.43;59.08;95854.59;5074021;28;20451;-78
2023/10/03 08:03:47;;;;;;;22.70;14.30;;;;;;;21.54;58.73;95851.53;5073756;28;20862;-79
2023/10/03 08:06:15;;;;;;;25.83;14.93;;;;;;;21.33;56.06;95851.28;5073845;28;20483;-78
2023/10/03 08:08:42;;;;;;;20.80;15.07;;;;;;;21.21;56.21;95845.47;5074093;28;20468;-78
2023/10/03 08:11:13;;;;;;;23.13;15.10;;;;;;;21.32;56.94;95853.13;5073760;28;20921;-78
2023/10/03 08:13:41;;;;;;;28.70;15.40;;;;;;;21.00;56.56;95847.84;5073691;28;20443;-77
2023/10/03 08:16:08;;;;;;;23.03;14.53;;;;;;;21.12;57.56;95841.16;5037691;28;20481;-78
2023/10/03 08:18:36;;;;;;;27.97;14.67;;;;;;;21.31;57.35;95846.09;5072961;28;20443;-78
2023/10/03 08:21:03;;;;;;;20.23;13.80;;;;;;;21.55;55.79;95847.84;5073568;28;20444;-79
2023/10/03 08:23:33;;;;;;;17.57;12.07;;;;;;;21.93;57.03;95846.13;5073270;28;20482;-78
2023/10/03 08:26:02;;;;;;;19.10;13.57;;;;;;;22.17;54.22;95841.66;5054068;28;20883;-78
2023/10/03 08:28:29;;;;;;;17.13;13.27;;;;;;;22.32;53.55;95845.25;5072767;28;20446;-78
2023/10/03 08:31:05;;;;;;;20.57;12.70;;;;;;;22.44;54.82;95838.44;5072532;28;20930;-78
2023/10/03 08:33:36;;;;;;;19.50;13.00;;;;;;;22.45;53.57;95837.44;5072414;28;20451;-78
2023/10/03 08:36:14;;;;;;;20.67;12.90;;;;;;;22.38;52.70;95833.81;5072859;28;20486;-78
2023/10/03 08:38:43;;;;;;;17.93;13.20;;;;;;;21.98;53.11;95842.94;5072921;28;20885;-78
2023/10/03 08:41:15;;;;;;;19.07;12.67;;;;;;;21.60;54.40;95833.97;5072581;28;20440;-79
2023/10/03 08:43:43;;;;;;;19.23;13.07;;;;;;;21.56;54.69;95833.47;5072950;28;20497;-78
2023/10/03 08:46:15;;;;;;;22.73;12.10;;;;;;;21.68;55.27;95830.41;5072729;28;20444;-78
2023/10/03 08:48:44;;;;;;;20.73;13.40;;;;;;;21.78;53.13;95826.53;5072938;28;20456;-78
2023/10/03 08:51:13;;;;;;;21.37;12.60;;;;;;;21.62;53.42;95822.09;5072229;28;20538;-78
2023/10/03 08:53:41;;;;;;;19.23;13.10;;;;;;;21.35;55.73;95825.22;5054118;28;20454;-78
2023/10/03 08:56:08;;;;;;;19.90;11.80;;;;;;;21.22;55.00;95819.59;5072243;28;20475;-79
2023/10/03 08:58:39;;;;;;;22.10;13.17;;;;;;;21.22;55.58;95812.41;5072459;28;20501;-78
2023/10/03 09:01:07;;;;;;;22.03;12.63;;;;;;;21.39;54.72;95821.19;5072595;28;20497;-78
2023/10/03 09:03:47;;;;;;;18.60;11.70;;;;;;;21.59;56.40;95813.59;5072367;28;20573;-79
2023/10/03 09:06:19;;;;;;;23.70;11.23;;;;;;;21.86;54.70;95807.75;5072091;28;20953;-78
2023/10/03 09:08:47;;;;;;;20.27;12.07;;;;;;;22.05;54.02;95806.50;5071714;28;20451;-78
2023/10/03 09:11:14;;;;;;;20.73;12.50;;;;;;;22.15;53.68;95807.09;5072253;28;20778;-78
2023/10/03 09:13:45;;;;;;;15.40;10.63;;;;;;;22.25;53.80;95810.34;5053849;28;20492;-78
2023/10/03 09:16:14;;;;;;;17.77;10.70;;;;;;;22.30;52.49;95814.34;5071917;28;20478;-79
2023/10/03 09:18:56;;;;;;;21.13;12.80;;;;;;;21.93;53.95;95806.03;5072525;28;20444;-79
2023/10/03 09:21:25;;;;;;;19.37;11.40;;;;;;;21.93;53.81;95807.88;5072250;28;20442;-78
2023/10/03 09:24:01;;;;;;;14.50;10.83;;;;;;;22.06;54.43;95808.16;5071921;28;20490;-78
2023/10/03 09:26:28;;;;;;;18.20;10.93;;;;;;;22.11;53.79;95800.44;5071836;28;20453;-78
2023/10/03 09:28:58;;;;;;;21.50;12.33;;;;;;;21.42;54.73;95798.69;5072041;28;20443;-78
2023/10/03 09:31:25;;;;;;;20.80;11.43;;;;;;;21.45;54.85;95803.69;5071982;28;20505;-78
2023/10/03 09:33:57;;;;;;;20.03;10.80;;;;;;;21.34;55.44;95799.53;5072212;28;20815;-78
2023/10/03 09:36:28;;;;;;;12.70;10.43;;;;;;;21.44;56.33;95794.00;5072177;28;20504;-78
2023/10/03 09:38:55;;;;;;;14.27;10.77;;;;;;;21.61;56.51;95785.69;5072040;28;20438;-78
2023/10/03 09:41:22;;;;;;;21.97;11.40;;;;;;;21.84;57.66;95772.38;5072214;28;20503;-78
2023/10/03 09:43:53;;;;;;;22.43;12.30;;;;;;;21.98;54.45;95783.31;5071918;28;20856;-78
2023/10/03 09:46:26;;;;;;;19.60;11.40;;;;;;;22.01;55.29;95783.78;5071709;28;20477;-78
2023/10/03 09:49:07;;;;;;;17.30;9.33;;;;;;;22.13;54.89;95777.03;5071866;28;20529;-78
2023/10/03 09:51:47;;;;;;;15.97;10.80;;;;;;;22.07;53.53;95769.72;5071804;28;20492;-77
2023/10/03 09:54:24;;;;;;;17.27;10.23;;;;;;;21.85;54.16;95773.19;5072216;28;20457;-78
2023/10/03 09:56:55;;;;;;;14.33;10.00;;;;;;;21.69;54.34;95768.81;5071502;28;21087;-78
2023/10/03 09:59:24;;;;;;;16.40;10.70;;;;;;;21.72;53.76;95767.63;5070791;28;20430;-77
2023/10/03 10:01:55;;;;;;;15.20;11.23;;;;;;;21.67;54.02;95762.78;5071962;28;20238;-78
2023/10/03 10:04:26;;;;;;;18.10;9.67;;;;;;;21.85;54.76;95762.50;5071536;28;20487;-78
2023/10/03 10:07:01;;;;;;;12.53;8.50;;;;;;;21.84;52.94;95761.69;5071548;28;20807;-78
2023/10/03 10:09:35;;;;;;;11.93;7.93;;;;;;;21.88;52.75;95756.81;5071555;28;20473;-78
2023/10/03 10:12:18;;;;;;;16.20;9.73;;;;;;;21.86;51.98;95754.31;5071950;28;20446;-78
2023/10/03 10:15:26;;;;;;;17.90;9.20;;;;;;;21.81;52.24;95750.53;5071532;28;20447;-78
2023/10/03 10:17:55;;;;;;;13.13;7.70;;;;;;;21.70;51.52;95748.28;5071570;28;20537;-78
2023/10/03 10:20:37;;;;;;;15.07;9.70;;;;;;;21.82;52.11;95741.50;5074034;28;20454;-80
2023/10/03 10:23:13;;;;;;;14.63;9.50;;;;;;;21.75;53.20;95745.91;5075067;28;20964;-78
2023/10/03 10:25:50;;;;;;;14.30;9.10;;;;;;;21.92;53.19;95731.38;5075066;28;20450;-78
2023/10/03 10:28:21;;;;;;;20.30;9.30;;;;;;;22.08;53.58;95720.59;5074829;28;20435;-78
2023/10/03 10:31:24;;;;;;;13.37;9.13;;;;;;;22.03;54.76;95725.63;5075355;28;20478;-78
2023/10/03 10:34:12;;;;;;;13.33;9.73;;;;;;;22.03;53.42;95717.63;5074901;28;20817;-78
2023/10/03 10:37:02;;;;;;;14.70;8.67;;;;;;;22.01;52.44;95719.63;5075284;28;20437;-78
2023/10/03 10:40:09;;;;;;;13.60;9.50;;;;;;;21.90;52.12;95718.19;5074766;28;20917;-78
2023/10/03 10:43:16;;;;;;;11.90;8.67;;;;;;;21.93;51.38;95712.50;5074699;28;20456;-81
2023/10/03 10:45:48;;;;;;;12.97;8.87;;;;;;;21.90;51.96;95712.03;5075141;28;20440;-80
2023/10/03 10:48:18;;;;;;;13.17;9.37;;;;;;;21.81;51.99;95708.59;5039362;28;20436;-80
2023/10/03 10:51:07;;;;;;;17.87;9.60;;;;;;;21.78;52.09;95703.63;5074623;28;20948;-78
2023/10/03 10:53:43;;;;;;;11.10;9.23;;;;;;;21.83;52.36;95698.56;5074857;28;20593;-79
2023/10/03 10:56:12;;;;;;;13.23;8.43;;;;;;;21.93;51.79;95698.31;5074897;28;20445;-80
2023/10/03 10:59:01;;;;;;;13.57;8.00;;;;;;;22.08;51.55;95704.56;5074443;28;20440;-78
2023/10/03 11:01:29;;;;;;;14.63;8.63;;;;;;;22.17;53.83;95699.97;5055716;28;20441;-80
2023/10/03 11:03:56;;;;;;;14.63;8.27;;;;;;;22.25;51.35;95683.81;5006192;28;20569;-80
2023/10/03 11:06:25;;;;;;;12.20;9.50;;;;;;;22.35;50.89;95683.59;5074448;28;20442;-80
2023/10/03 11:08:54;;;;;;;11.70;8.60;;;;;;;22.48;50.93;95681.09;5074287;28;20854;-80
2023/10/03 11:11:21;;;;;;;11.03;7.83;;;;;;;22.58;50.38;95675.47;5074329;28;20443;-80
2023/10/03 11:13:49;;;;;;;15.07;9.50;;;;;;;22.54;48.43;95672.31;5074279;28;20925;-80
2023/10/03 11:16:23;;;;;;;15.17;9.47;;;;;;;22.47;49.62;95672.22;5074136;28;21039;-80
2023/10/03 11:18:51;;;;;;;10.87;7.80;;;;;;;22.50;49.53;95671.03;5074071;28;20920;-80
2023/10/03 11:21:19;;;;;;;11.00;8.93;;;;;;;22.59;49.03;95659.25;5074609;28;20503;-80
2023/10/03 11:24:09;;;;;;;12.27;9.40;;;;;;;22.66;51.54;95667.34;5074042;28;20486;-80
2023/10/03 11:26:51;;;;;;;10.33;8.30;;;;;;;22.69;48.03;95665.13;5073908;28;20958;-78
2023/10/03 11:29:43;;;;;;;14.70;8.83;;;;;;;22.73;48.61;95654.88;5074203;28;20453;-80
2023/10/03 11:32:22;;;;;;;12.93;9.67;;;;;;;22.59;48.05;95653.06;5073777;28;20512;-80
2023/10/03 11:34:50;;;;;;;10.80;8.00;;;;;;;22.55;48.30;95652.56;5073818;28;20829;-80